Aérodrome :
LOGIN :

S'inscrire | Disclaimer

   EN    FR    IT 

 










Légende :    VFR   VFR Marginal   IFR   IFR Intensif   IFR Très Intensif
Visi : 
Plafond : 
>= 8 km
>= 3000ft
5 à 8 km
1000 à 3000 ft
1500m à 5 km
500 à 1000 ft
800 à 1500m
200 à 500 ft
< 800m
< 200 ft
Symboles :   Orages  Brouillard  Fortes neiges  Fortes précipitations  Vent > 20 kt
SIGMETs :   Divers  Orages  Givrage  Turbulence  Onde Orograph.  Cendres Volcan.







- Altitude de l'aérodrome : 392 ft
- Code IATA : CDG
- Voir les cartes d'approche


LFPG - Paris-Aeroport Charles De Gaulle

DERNIER METAR :
  • 122130Z 18010KT 8000 FEW005 BKN140 10/09 Q1019 NOSIG

METARs EXPIRÉS :
  • 122100Z 18008KT 170V240 CAVOK 10/09 Q1019 NOSIG
  • 122030Z 19008KT CAVOK 10/09 Q1018 NOSIG
  • 122000Z 20006KT CAVOK 10/09 Q1018 NOSIG
  • 121930Z 17006KT 140V200 CAVOK 10/09 Q1018 NOSIG
  • 121900Z 18006G16KT 140V300 CAVOK 10/09 Q1018 NOSIG

TAF TAF LFPG
Valide du 12 à 18h jusqu'au 14 à 00h UTC


121700Z 1218/1324 26005KT 9999 SCT012 BKN020 TX13/1314Z TN06/1324Z
TEMPO 1219/1303 BKN007
ATIS : +33 1 48 62 10 92
Pas de NOTAMs connus pour ce terrain.
1 SIGMET publié pour la FIR Paris (LFFF) :
 
Givrage fort
LFFF SIGMET 1 VALID 122100/122300 LFPW
LFFF PARIS FIR/UIR SEV ICE OBS AT 2100Z WI N4830 E00415 - N4800 E00445 - N4645 E00245 - N4715 E00215 - N4830 E00415 FL150/210 MOV NE 15KT NC=



MET'MAP, la Météo Aéronautique d'un coup d'oeil ! - Copyright ORBIFLY Décembre 2007 - Disclaimer

ORBIFLY MET'MAP TEAM :

Programmation & Développement : Alexandra Zaïnal
Conception & Développement : Baudouin d'Aumeries
Co-Programmation & Développement : Marc-Olivier Méhu
Soutien technique & logistique : Manuel Goepfert

Contact : metmap@orbifly.com




SOURCES & CREDITS :

   NOAA